sensor_id;sensor_type;location;lat;lon;timestamp;noise_LAeq;noise_LA_min;noise_LA_max;noise_LA01;noise_LA95
72415;Laerm;60995;52.154;4.498;2023-07-31T00:00:50;48.79;41.24;64.87;;
72415;Laerm;60995;52.154;4.498;2023-07-31T00:03:06;47.55;41.80;63.18;;
72415;Laerm;60995;52.154;4.498;2023-07-31T00:05:23;46.98;41.12;62.39;;
72415;Laerm;60995;52.154;4.498;2023-07-31T00:07:39;51.21;42.42;62.07;;
72415;Laerm;60995;52.154;4.498;2023-07-31T00:09:55;52.28;44.92;64.02;;
72415;Laerm;60995;52.154;4.498;2023-07-31T00:12:12;52.66;47.77;64.81;;
72415;Laerm;60995;52.154;4.498;2023-07-31T00:14:29;51.16;45.83;64.80;;
72415;Laerm;60995;52.154;4.498;2023-07-31T00:16:45;51.19;45.91;70.12;;
72415;Laerm;60995;52.154;4.498;2023-07-31T00:19:01;50.62;45.50;62.20;;
72415;Laerm;60995;52.154;4.498;2023-07-31T00:21:17;50.26;44.93;62.81;;
72415;Laerm;60995;52.154;4.498;2023-07-31T00:23:34;52.67;46.38;61.59;;
72415;Laerm;60995;52.154;4.498;2023-07-31T00:25:50;58.22;50.42;67.17;;
72415;Laerm;60995;52.154;4.498;2023-07-31T00:28:06;62.00;56.52;67.98;;
72415;Laerm;60995;52.154;4.498;2023-07-31T00:30:22;57.75;52.46;67.17;;
72415;Laerm;60995;52.154;4.498;2023-07-31T00:32:41;52.75;46.65;63.60;;
72415;Laerm;60995;52.154;4.498;2023-07-31T00:34:57;50.44;43.03;64.85;;
72415;Laerm;60995;52.154;4.498;2023-07-31T00:37:13;48.27;41.43;64.84;;
72415;Laerm;60995;52.154;4.498;2023-07-31T00:39:31;47.66;40.60;63.95;;
72415;Laerm;60995;52.154;4.498;2023-07-31T00:41:47;47.62;40.54;66.18;;
72415;Laerm;60995;52.154;4.498;2023-07-31T00:44:03;47.24;39.56;62.80;;
72415;Laerm;60995;52.154;4.498;2023-07-31T00:46:20;46.22;39.25;62.18;;
72415;Laerm;60995;52.154;4.498;2023-07-31T00:48:39;46.59;39.72;62.97;;
72415;Laerm;60995;52.154;4.498;2023-07-31T00:50:55;46.19;38.99;63.07;;
72415;Laerm;60995;52.154;4.498;2023-07-31T00:53:11;45.97;38.42;63.09;;
72415;Laerm;60995;52.154;4.498;2023-07-31T00:55:29;45.65;38.32;60.97;;
72415;Laerm;60995;52.154;4.498;2023-07-31T00:57:48;45.80;39.18;64.00;;
72415;Laerm;60995;52.154;4.498;2023-07-31T01:00:06;45.73;39.13;61.51;;
72415;Laerm;60995;52.154;4.498;2023-07-31T01:02:22;45.76;38.58;60.70;;
72415;Laerm;60995;52.154;4.498;2023-07-31T01:04:39;45.56;39.14;61.59;;
72415;Laerm;60995;52.154;4.498;2023-07-31T01:07:32;45.45;39.18;61.53;;
72415;Laerm;60995;52.154;4.498;2023-07-31T01:10:15;46.05;40.10;63.30;;
72415;Laerm;60995;52.154;4.498;2023-07-31T01:12:34;46.19;39.29;63.12;;
72415;Laerm;60995;52.154;4.498;2023-07-31T01:15:01;47.86;40.10;61.30;;
72415;Laerm;60995;52.154;4.498;2023-07-31T01:17:17;46.35;39.43;63.62;;
72415;Laerm;60995;52.154;4.498;2023-07-31T01:19:33;45.54;39.52;61.24;;
72415;Laerm;60995;52.154;4.498;2023-07-31T01:24:55;45.67;39.25;61.48;;
72415;Laerm;60995;52.154;4.498;2023-07-31T01:27:24;44.47;38.38;61.42;;
72415;Laerm;60995;52.154;4.498;2023-07-31T01:32:02;44.96;38.42;61.82;;
72415;Laerm;60995;52.154;4.498;2023-07-31T01:34:21;44.57;38.44;59.28;;
72415;Laerm;60995;52.154;4.498;2023-07-31T01:36:38;44.34;38.77;61.91;;
72415;Laerm;60995;52.154;4.498;2023-07-31T01:39:01;44.62;38.89;60.61;;
72415;Laerm;60995;52.154;4.498;2023-07-31T01:41:18;44.65;38.05;60.93;;
72415;Laerm;60995;52.154;4.498;2023-07-31T01:43:34;45.18;39.28;62.05;;
72415;Laerm;60995;52.154;4.498;2023-07-31T01:45:51;45.15;39.24;60.16;;
72415;Laerm;60995;52.154;4.498;2023-07-31T01:48:07;45.65;40.62;61.18;;
72415;Laerm;60995;52.154;4.498;2023-07-31T01:50:23;45.01;38.95;63.99;;
72415;Laerm;60995;52.154;4.498;2023-07-31T01:52:39;46.61;38.76;61.96;;
72415;Laerm;60995;52.154;4.498;2023-07-31T01:54:56;45.35;39.21;63.13;;
72415;Laerm;60995;52.154;4.498;2023-07-31T01:57:12;45.29;38.40;59.35;;
72415;Laerm;60995;52.154;4.498;2023-07-31T01:59:28;44.70;38.46;61.48;;
72415;Laerm;60995;52.154;4.498;2023-07-31T02:01:45;44.64;38.61;62.78;;
72415;Laerm;60995;52.154;4.498;2023-07-31T02:04:01;45.30;38.60;63.92;;
72415;Laerm;60995;52.154;4.498;2023-07-31T02:06:17;45.99;38.84;55.21;;
72415;Laerm;60995;52.154;4.498;2023-07-31T02:08:33;45.05;39.38;63.16;;
72415;Laerm;60995;52.154;4.498;2023-07-31T02:10:50;45.03;38.40;62.88;;
72415;Laerm;60995;52.154;4.498;2023-07-31T02:13:06;44.68;37.74;61.10;;
72415;Laerm;60995;52.154;4.498;2023-07-31T02:15:22;44.59;38.82;61.34;;
72415;Laerm;60995;52.154;4.498;2023-07-31T02:17:38;44.64;38.71;54.17;;
72415;Laerm;60995;52.154;4.498;2023-07-31T02:19:55;46.26;39.95;63.25;;
72415;Laerm;60995;52.154;4.498;2023-07-31T02:22:11;45.01;39.39;55.18;;
72415;Laerm;60995;52.154;4.498;2023-07-31T02:24:28;44.29;38.02;53.67;;
72415;Laerm;60995;52.154;4.498;2023-07-31T02:26:44;44.86;38.64;61.58;;
72415;Laerm;60995;52.154;4.498;2023-07-31T02:29:00;45.47;38.96;56.87;;
72415;Laerm;60995;52.154;4.498;2023-07-31T02:31:17;45.78;39.11;62.13;;
72415;Laerm;60995;52.154;4.498;2023-07-31T02:33:33;45.65;38.28;54.48;;
72415;Laerm;60995;52.154;4.498;2023-07-31T02:35:49;44.20;38.81;57.27;;
72415;Laerm;60995;52.154;4.498;2023-07-31T02:38:05;44.86;38.87;53.56;;
72415;Laerm;60995;52.154;4.498;2023-07-31T02:40:22;47.24;40.16;72.01;;
72415;Laerm;60995;52.154;4.498;2023-07-31T02:42:38;44.68;38.42;54.75;;
72415;Laerm;60995;52.154;4.498;2023-07-31T02:44:54;45.02;39.41;59.20;;
72415;Laerm;60995;52.154;4.498;2023-07-31T02:47:11;46.60;39.43;64.73;;
72415;Laerm;60995;52.154;4.498;2023-07-31T02:49:28;49.54;40.49;78.01;;
72415;Laerm;60995;52.154;4.498;2023-07-31T02:51:44;45.18;38.47;54.13;;
72415;Laerm;60995;52.154;4.498;2023-07-31T02:54:00;45.24;39.70;54.89;;
72415;Laerm;60995;52.154;4.498;2023-07-31T02:56:16;45.09;39.56;55.07;;
72415;Laerm;60995;52.154;4.498;2023-07-31T02:58:33;50.16;39.38;75.78;;
72415;Laerm;60995;52.154;4.498;2023-07-31T03:00:49;46.50;40.21;62.57;;
72415;Laerm;60995;52.154;4.498;2023-07-31T03:03:10;44.78;39.35;53.40;;
72415;Laerm;60995;52.154;4.498;2023-07-31T03:05:26;44.32;38.34;54.49;;
72415;Laerm;60995;52.154;4.498;2023-07-31T03:07:42;44.95;38.89;58.21;;
72415;Laerm;60995;52.154;4.498;2023-07-31T03:09:59;45.48;39.37;58.99;;
72415;Laerm;60995;52.154;4.498;2023-07-31T03:12:15;45.00;39.06;58.37;;
72415;Laerm;60995;52.154;4.498;2023-07-31T03:14:31;45.22;39.35;58.19;;
72415;Laerm;60995;52.154;4.498;2023-07-31T03:16:49;47.16;40.10;60.46;;
72415;Laerm;60995;52.154;4.498;2023-07-31T03:19:05;50.16;43.67;62.50;;
72415;Laerm;60995;52.154;4.498;2023-07-31T03:21:21;47.98;42.44;59.19;;
72415;Laerm;60995;52.154;4.498;2023-07-31T03:23:37;47.79;41.03;65.06;;
72415;Laerm;60995;52.154;4.498;2023-07-31T03:26:00;46.52;40.82;58.39;;
72415;Laerm;60995;52.154;4.498;2023-07-31T03:28:16;48.44;41.72;60.84;;
72415;Laerm;60995;52.154;4.498;2023-07-31T03:30:36;46.53;40.09;58.48;;
72415;Laerm;60995;52.154;4.498;2023-07-31T03:32:54;50.30;43.93;61.83;;
72415;Laerm;60995;52.154;4.498;2023-07-31T03:35:10;49.23;42.14;59.35;;
72415;Laerm;60995;52.154;4.498;2023-07-31T03:37:26;50.75;41.41;70.35;;
72415;Laerm;60995;52.154;4.498;2023-07-31T03:39:42;47.41;41.23;64.34;;
72415;Laerm;60995;52.154;4.498;2023-07-31T03:41:59;47.39;41.53;60.59;;
72415;Laerm;60995;52.154;4.498;2023-07-31T03:44:15;49.74;41.41;67.55;;
72415;Laerm;60995;52.154;4.498;2023-07-31T03:46:31;47.06;41.73;59.91;;
72415;Laerm;60995;52.154;4.498;2023-07-31T03:48:48;47.45;41.67;59.26;;
72415;Laerm;60995;52.154;4.498;2023-07-31T03:51:04;47.32;41.68;63.65;;
72415;Laerm;60995;52.154;4.498;2023-07-31T03:53:21;47.39;40.87;56.53;;
72415;Laerm;60995;52.154;4.498;2023-07-31T03:55:37;47.12;40.66;56.49;;
72415;Laerm;60995;52.154;4.498;2023-07-31T03:57:53;48.02;41.36;56.65;;
72415;Laerm;60995;52.154;4.498;2023-07-31T04:00:10;47.63;41.91;57.71;;
72415;Laerm;60995;52.154;4.498;2023-07-31T04:02:27;48.17;41.86;62.50;;
72415;Laerm;60995;52.154;4.498;2023-07-31T04:04:43;48.17;42.46;58.29;;
72415;Laerm;60995;52.154;4.498;2023-07-31T04:06:59;49.06;43.56;65.23;;
72415;Laerm;60995;52.154;4.498;2023-07-31T04:09:15;48.90;42.85;61.36;;
72415;Laerm;60995;52.154;4.498;2023-07-31T04:11:32;48.72;43.17;63.56;;
72415;Laerm;60995;52.154;4.498;2023-07-31T04:13:48;48.68;42.34;58.15;;
72415;Laerm;60995;52.154;4.498;2023-07-31T04:16:04;48.16;43.31;57.49;;
72415;Laerm;60995;52.154;4.498;2023-07-31T04:18:24;49.96;43.25;63.54;;
72415;Laerm;60995;52.154;4.498;2023-07-31T04:20:41;51.07;45.49;64.48;;
72415;Laerm;60995;52.154;4.498;2023-07-31T04:22:57;51.56;46.03;68.40;;
72415;Laerm;60995;52.154;4.498;2023-07-31T04:25:13;52.09;47.07;64.01;;
72415;Laerm;60995;52.154;4.498;2023-07-31T04:27:30;53.26;48.11;69.58;;
72415;Laerm;60995;52.154;4.498;2023-07-31T04:29:46;54.51;48.77;63.68;;
72415;Laerm;60995;52.154;4.498;2023-07-31T04:32:04;56.12;50.57;64.25;;
72415;Laerm;60995;52.154;4.498;2023-07-31T04:34:20;56.97;50.01;71.97;;
72415;Laerm;60995;52.154;4.498;2023-07-31T04:36:36;52.86;48.21;62.96;;
72415;Laerm;60995;52.154;4.498;2023-07-31T04:38:52;52.71;48.64;63.91;;
72415;Laerm;60995;52.154;4.498;2023-07-31T04:41:09;53.58;48.64;62.93;;
72415;Laerm;60995;52.154;4.498;2023-07-31T04:43:25;57.35;52.33;65.48;;
72415;Laerm;60995;52.154;4.498;2023-07-31T04:45:48;60.11;54.73;68.67;;
72415;Laerm;60995;52.154;4.498;2023-07-31T04:48:05;59.91;55.97;67.04;;
72415;Laerm;60995;52.154;4.498;2023-07-31T04:50:21;58.95;54.38;68.88;;
72415;Laerm;60995;52.154;4.498;2023-07-31T04:52:37;58.73;54.37;69.60;;
72415;Laerm;60995;52.154;4.498;2023-07-31T04:54:53;58.03;53.29;65.18;;
72415;Laerm;60995;52.154;4.498;2023-07-31T04:57:10;56.70;51.86;65.44;;
72415;Laerm;60995;52.154;4.498;2023-07-31T04:59:26;56.29;51.99;65.75;;
72415;Laerm;60995;52.154;4.498;2023-07-31T05:01:42;55.65;51.31;65.91;;
72415;Laerm;60995;52.154;4.498;2023-07-31T05:03:59;57.49;50.86;65.39;;
72415;Laerm;60995;52.154;4.498;2023-07-31T05:06:15;59.52;55.00;67.05;;
72415;Laerm;60995;52.154;4.498;2023-07-31T05:08:31;60.57;55.22;68.49;;
72415;Laerm;60995;52.154;4.498;2023-07-31T05:10:49;59.19;53.97;66.60;;
72415;Laerm;60995;52.154;4.498;2023-07-31T05:13:05;59.76;55.15;70.06;;
72415;Laerm;60995;52.154;4.498;2023-07-31T05:15:21;57.73;52.04;66.84;;
72415;Laerm;60995;52.154;4.498;2023-07-31T05:17:38;56.01;51.15;63.93;;
72415;Laerm;60995;52.154;4.498;2023-07-31T05:19:54;55.31;50.76;64.69;;
72415;Laerm;60995;52.154;4.498;2023-07-31T05:22:10;55.49;50.77;64.16;;
72415;Laerm;60995;52.154;4.498;2023-07-31T05:24:26;54.63;49.32;69.58;;
72415;Laerm;60995;52.154;4.498;2023-07-31T05:26:43;54.81;49.47;64.15;;
72415;Laerm;60995;52.154;4.498;2023-07-31T05:28:59;54.17;48.74;63.81;;
72415;Laerm;60995;52.154;4.498;2023-07-31T05:31:15;54.68;49.54;65.40;;
72415;Laerm;60995;52.154;4.498;2023-07-31T05:33:31;54.54;49.79;63.48;;
72415;Laerm;60995;52.154;4.498;2023-07-31T05:35:48;53.92;48.81;64.55;;
72415;Laerm;60995;52.154;4.498;2023-07-31T05:38:04;53.42;47.97;63.18;;
72415;Laerm;60995;52.154;4.498;2023-07-31T05:40:20;53.21;48.02;62.85;;
72415;Laerm;60995;52.154;4.498;2023-07-31T05:42:37;53.20;48.18;63.74;;
72415;Laerm;60995;52.154;4.498;2023-07-31T05:44:54;52.63;47.22;63.92;;
72415;Laerm;60995;52.154;4.498;2023-07-31T05:47:10;52.24;47.01;64.92;;
72415;Laerm;60995;52.154;4.498;2023-07-31T05:49:27;53.19;48.53;64.57;;
72415;Laerm;60995;52.154;4.498;2023-07-31T05:51:43;52.67;47.73;62.81;;
72415;Laerm;60995;52.154;4.498;2023-07-31T05:53:59;54.10;48.47;65.45;;
72415;Laerm;60995;52.154;4.498;2023-07-31T05:56:15;54.54;49.35;71.84;;
72415;Laerm;60995;52.154;4.498;2023-07-31T05:58:32;53.48;48.32;64.45;;
72415;Laerm;60995;52.154;4.498;2023-07-31T06:00:48;53.44;48.70;65.24;;
72415;Laerm;60995;52.154;4.498;2023-07-31T06:03:04;53.69;48.15;64.65;;
72415;Laerm;60995;52.154;4.498;2023-07-31T06:05:20;53.23;47.39;63.60;;
72415;Laerm;60995;52.154;4.498;2023-07-31T06:07:37;52.84;47.28;65.29;;
72415;Laerm;60995;52.154;4.498;2023-07-31T06:09:53;52.69;47.14;63.58;;
72415;Laerm;60995;52.154;4.498;2023-07-31T06:12:10;53.04;48.11;65.83;;
72415;Laerm;60995;52.154;4.498;2023-07-31T06:14:27;52.58;47.89;65.16;;
72415;Laerm;60995;52.154;4.498;2023-07-31T06:16:44;52.34;47.39;68.28;;
72415;Laerm;60995;52.154;4.498;2023-07-31T06:19:00;52.72;47.67;63.55;;
72415;Laerm;60995;52.154;4.498;2023-07-31T06:21:17;53.64;48.28;66.56;;
72415;Laerm;60995;52.154;4.498;2023-07-31T06:23:33;52.84;47.02;62.36;;
72415;Laerm;60995;52.154;4.498;2023-07-31T06:25:49;52.62;47.85;62.55;;
72415;Laerm;60995;52.154;4.498;2023-07-31T06:28:05;52.27;46.97;66.96;;
72415;Laerm;60995;52.154;4.498;2023-07-31T06:30:22;52.88;46.91;65.11;;
72415;Laerm;60995;52.154;4.498;2023-07-31T06:32:38;54.63;47.69;64.92;;
72415;Laerm;60995;52.154;4.498;2023-07-31T06:34:56;52.78;47.64;62.47;;
72415;Laerm;60995;52.154;4.498;2023-07-31T06:37:13;53.79;48.86;63.14;;
72415;Laerm;60995;52.154;4.498;2023-07-31T06:39:29;55.47;49.95;66.13;;
72415;Laerm;60995;52.154;4.498;2023-07-31T06:41:45;54.66;49.46;67.26;;
72415;Laerm;60995;52.154;4.498;2023-07-31T06:44:01;53.77;49.07;65.08;;
72415;Laerm;60995;52.154;4.498;2023-07-31T06:46:18;55.18;49.64;66.46;;
72415;Laerm;60995;52.154;4.498;2023-07-31T06:48:34;53.75;48.54;64.89;;
72415;Laerm;60995;52.154;4.498;2023-07-31T06:50:50;53.77;48.21;64.43;;
72415;Laerm;60995;52.154;4.498;2023-07-31T06:53:06;52.92;46.61;62.07;;
72415;Laerm;60995;52.154;4.498;2023-07-31T06:55:24;52.57;47.86;62.75;;
72415;Laerm;60995;52.154;4.498;2023-07-31T06:57:40;52.34;46.56;63.38;;
72415;Laerm;60995;52.154;4.498;2023-07-31T06:59:57;52.26;47.13;63.20;;
72415;Laerm;60995;52.154;4.498;2023-07-31T07:02:16;51.23;45.72;61.61;;
72415;Laerm;60995;52.154;4.498;2023-07-31T07:04:35;52.30;47.15;62.35;;
72415;Laerm;60995;52.154;4.498;2023-07-31T07:06:52;51.39;45.98;63.13;;
72415;Laerm;60995;52.154;4.498;2023-07-31T07:09:08;51.76;46.50;63.13;;
72415;Laerm;60995;52.154;4.498;2023-07-31T07:11:24;51.55;46.56;61.01;;
72415;Laerm;60995;52.154;4.498;2023-07-31T07:13:40;53.65;46.01;66.94;;
72415;Laerm;60995;52.154;4.498;2023-07-31T07:15:57;52.23;47.15;61.72;;
72415;Laerm;60995;52.154;4.498;2023-07-31T07:18:13;51.55;46.76;62.97;;
72415;Laerm;60995;52.154;4.498;2023-07-31T07:20:30;51.36;45.87;62.02;;
72415;Laerm;60995;52.154;4.498;2023-07-31T07:22:46;51.36;46.63;61.67;;
72415;Laerm;60995;52.154;4.498;2023-07-31T07:25:05;52.93;47.17;61.76;;
72415;Laerm;60995;52.154;4.498;2023-07-31T07:27:23;52.05;47.12;62.90;;
72415;Laerm;60995;52.154;4.498;2023-07-31T07:29:39;52.05;46.57;62.43;;
72415;Laerm;60995;52.154;4.498;2023-07-31T07:31:55;53.94;46.88;64.58;;
72415;Laerm;60995;52.154;4.498;2023-07-31T07:34:12;52.95;47.37;62.21;;
72415;Laerm;60995;52.154;4.498;2023-07-31T07:36:28;51.79;46.67;64.25;;
72415;Laerm;60995;52.154;4.498;2023-07-31T07:38:44;52.83;47.56;64.93;;
72415;Laerm;60995;52.154;4.498;2023-07-31T07:41:01;51.13;45.29;61.53;;
72415;Laerm;60995;52.154;4.498;2023-07-31T07:43:17;50.83;45.62;60.92;;
72415;Laerm;60995;52.154;4.498;2023-07-31T07:45:33;52.94;47.07;63.59;;
72415;Laerm;60995;52.154;4.498;2023-07-31T07:47:50;51.20;45.63;61.65;;
72415;Laerm;60995;52.154;4.498;2023-07-31T07:50:06;50.89;45.57;62.66;;
72415;Laerm;60995;52.154;4.498;2023-07-31T07:52:23;51.77;45.43;62.87;;
72415;Laerm;60995;52.154;4.498;2023-07-31T07:54:39;51.22;46.16;61.34;;
72415;Laerm;60995;52.154;4.498;2023-07-31T07:56:55;50.98;44.53;65.28;;
72415;Laerm;60995;52.154;4.498;2023-07-31T07:59:12;51.91;46.55;64.46;;
72415;Laerm;60995;52.154;4.498;2023-07-31T08:01:28;52.34;45.99;64.96;;
72415;Laerm;60995;52.154;4.498;2023-07-31T08:03:44;51.66;44.98;61.19;;
72415;Laerm;60995;52.154;4.498;2023-07-31T08:06:01;51.33;45.83;63.87;;
72415;Laerm;60995;52.154;4.498;2023-07-31T08:08:18;50.80;45.53;63.47;;
72415;Laerm;60995;52.154;4.498;2023-07-31T08:10:35;51.10;45.15;62.54;;
72415;Laerm;60995;52.154;4.498;2023-07-31T08:12:51;52.37;46.34;64.16;;
72415;Laerm;60995;52.154;4.498;2023-07-31T08:15:08;50.98;44.75;61.05;;
72415;Laerm;60995;52.154;4.498;2023-07-31T08:17:24;50.95;44.68;63.98;;
72415;Laerm;60995;52.154;4.498;2023-07-31T08:19:40;51.23;46.22;62.97;;
72415;Laerm;60995;52.154;4.498;2023-07-31T08:21:57;51.47;44.95;61.23;;
72415;Laerm;60995;52.154;4.498;2023-07-31T08:24:13;50.51;44.82;61.30;;
72415;Laerm;60995;52.154;4.498;2023-07-31T08:26:29;50.95;45.64;63.90;;
72415;Laerm;60995;52.154;4.498;2023-07-31T08:28:46;51.26;44.53;61.65;;
72415;Laerm;60995;52.154;4.498;2023-07-31T08:31:02;51.31;45.29;62.66;;
72415;Laerm;60995;52.154;4.498;2023-07-31T08:33:18;50.71;44.09;63.09;;
72415;Laerm;60995;52.154;4.498;2023-07-31T08:35:34;52.50;46.14;64.53;;
72415;Laerm;60995;52.154;4.498;2023-07-31T08:37:51;53.03;45.39;76.57;;
72415;Laerm;60995;52.154;4.498;2023-07-31T08:40:08;50.80;44.82;63.92;;
72415;Laerm;60995;52.154;4.498;2023-07-31T08:42:24;50.46;44.51;61.13;;
72415;Laerm;60995;52.154;4.498;2023-07-31T08:44:41;50.10;44.45;63.32;;
72415;Laerm;60995;52.154;4.498;2023-07-31T08:46:59;50.16;44.69;62.47;;
72415;Laerm;60995;52.154;4.498;2023-07-31T08:49:18;50.86;45.19;62.22;;
72415;Laerm;60995;52.154;4.498;2023-07-31T08:51:36;50.43;45.46;59.23;;
72415;Laerm;60995;52.154;4.498;2023-07-31T08:53:53;50.96;44.11;61.30;;
72415;Laerm;60995;52.154;4.498;2023-07-31T08:56:12;53.51;44.99;74.21;;
72415;Laerm;60995;52.154;4.498;2023-07-31T08:58:34;50.47;44.84;64.37;;
72415;Laerm;60995;52.154;4.498;2023-07-31T09:00:53;48.69;43.28;61.44;;
72415;Laerm;60995;52.154;4.498;2023-07-31T09:03:17;50.83;44.64;61.35;;
72415;Laerm;60995;52.154;4.498;2023-07-31T09:05:36;48.79;43.26;63.56;;
72415;Laerm;60995;52.154;4.498;2023-07-31T09:07:54;51.10;43.23;64.48;;
72415;Laerm;60995;52.154;4.498;2023-07-31T09:10:11;51.46;44.85;65.24;;
72415;Laerm;60995;52.154;4.498;2023-07-31T09:12:28;50.65;44.00;60.10;;
72415;Laerm;60995;52.154;4.498;2023-07-31T09:14:46;51.11;43.92;70.45;;
72415;Laerm;60995;52.154;4.498;2023-07-31T09:17:03;50.32;43.49;67.97;;
72415;Laerm;60995;52.154;4.498;2023-07-31T09:19:43;51.33;45.18;64.87;;
72415;Laerm;60995;52.154;4.498;2023-07-31T09:22:00;50.66;45.44;66.28;;
72415;Laerm;60995;52.154;4.498;2023-07-31T09:24:30;50.58;44.01;66.90;;
72415;Laerm;60995;52.154;4.498;2023-07-31T09:26:47;50.58;44.81;64.74;;
72415;Laerm;60995;52.154;4.498;2023-07-31T09:29:05;50.83;43.66;74.43;;
72415;Laerm;60995;52.154;4.498;2023-07-31T09:31:40;50.27;44.91;65.27;;
72415;Laerm;60995;52.154;4.498;2023-07-31T09:33:57;51.45;44.59;67.97;;
72415;Laerm;60995;52.154;4.498;2023-07-31T09:36:13;50.28;44.20;61.27;;
72415;Laerm;60995;52.154;4.498;2023-07-31T09:38:30;55.19;44.62;69.95;;
72415;Laerm;60995;52.154;4.498;2023-07-31T09:40:48;60.36;49.61;71.23;;
72415;Laerm;60995;52.154;4.498;2023-07-31T09:43:07;58.31;45.66;70.89;;
72415;Laerm;60995;52.154;4.498;2023-07-31T09:45:24;51.29;44.47;65.04;;
72415;Laerm;60995;52.154;4.498;2023-07-31T09:47:47;52.11;45.04;74.42;;
72415;Laerm;60995;52.154;4.498;2023-07-31T09:50:07;53.21;45.51;72.96;;
72415;Laerm;60995;52.154;4.498;2023-07-31T09:52:26;53.57;44.59;74.16;;
72415;Laerm;60995;52.154;4.498;2023-07-31T09:54:43;55.26;46.10;74.98;;
72415;Laerm;60995;52.154;4.498;2023-07-31T09:57:00;51.53;45.40;70.17;;
72415;Laerm;60995;52.154;4.498;2023-07-31T09:59:20;50.64;43.94;63.51;;
72415;Laerm;60995;52.154;4.498;2023-07-31T10:01:38;51.12;44.36;67.45;;
72415;Laerm;60995;52.154;4.498;2023-07-31T10:03:56;52.96;44.58;68.11;;
72415;Laerm;60995;52.154;4.498;2023-07-31T10:06:14;51.28;45.22;62.59;;
72415;Laerm;60995;52.154;4.498;2023-07-31T10:08:36;51.91;44.84;65.22;;
72415;Laerm;60995;52.154;4.498;2023-07-31T10:10:52;59.64;43.69;67.69;;
72415;Laerm;60995;52.154;4.498;2023-07-31T10:13:09;57.89;44.41;72.68;;
72415;Laerm;60995;52.154;4.498;2023-07-31T10:15:27;51.81;44.37;74.74;;
72415;Laerm;60995;52.154;4.498;2023-07-31T10:17:47;50.84;44.19;71.41;;
72415;Laerm;60995;52.154;4.498;2023-07-31T10:20:06;54.30;45.02;70.35;;
72415;Laerm;60995;52.154;4.498;2023-07-31T10:22:23;55.64;45.91;68.68;;
72415;Laerm;60995;52.154;4.498;2023-07-31T10:24:42;51.44;44.95;66.33;;
72415;Laerm;60995;52.154;4.498;2023-07-31T10:27:01;52.37;46.62;61.42;;
72415;Laerm;60995;52.154;4.498;2023-07-31T10:29:19;50.04;43.25;56.36;;
72415;Laerm;60995;52.154;4.498;2023-07-31T10:31:36;51.32;44.15;75.00;;
72415;Laerm;60995;52.154;4.498;2023-07-31T10:33:56;51.87;45.32;63.93;;
72415;Laerm;60995;52.154;4.498;2023-07-31T10:36:17;52.98;46.50;66.84;;
72415;Laerm;60995;52.154;4.498;2023-07-31T10:38:33;50.42;44.20;65.45;;
72415;Laerm;60995;52.154;4.498;2023-07-31T10:40:50;57.24;43.53;71.48;;
72415;Laerm;60995;52.154;4.498;2023-07-31T10:43:06;55.73;44.48;67.60;;
72415;Laerm;60995;52.154;4.498;2023-07-31T10:47:58;51.07;44.87;62.87;;
72415;Laerm;60995;52.154;4.498;2023-07-31T10:50:21;50.80;44.27;71.15;;
72415;Laerm;60995;52.154;4.498;2023-07-31T10:52:39;51.08;45.78;67.52;;
72415;Laerm;60995;52.154;4.498;2023-07-31T10:57:47;50.53;43.52;66.88;;
72415;Laerm;60995;52.154;4.498;2023-07-31T11:00:27;51.13;44.29;62.12;;
72415;Laerm;60995;52.154;4.498;2023-07-31T11:03:06;51.90;44.10;67.57;;
72415;Laerm;60995;52.154;4.498;2023-07-31T11:08:28;51.99;44.09;69.39;;
72415;Laerm;60995;52.154;4.498;2023-07-31T11:10:47;51.84;45.00;73.91;;
72415;Laerm;60995;52.154;4.498;2023-07-31T11:13:06;53.08;47.13;65.46;;
72415;Laerm;60995;52.154;4.498;2023-07-31T11:15:27;52.63;46.99;76.04;;
72415;Laerm;60995;52.154;4.498;2023-07-31T11:17:43;50.17;44.34;63.40;;
72415;Laerm;60995;52.154;4.498;2023-07-31T11:19:59;49.63;43.68;57.97;;
72415;Laerm;60995;52.154;4.498;2023-07-31T11:22:15;50.45;43.64;70.80;;
72415;Laerm;60995;52.154;4.498;2023-07-31T11:24:34;50.15;44.24;56.63;;
72415;Laerm;60995;52.154;4.498;2023-07-31T11:26:53;53.65;44.66;69.17;;
72415;Laerm;60995;52.154;4.498;2023-07-31T11:29:13;50.61;43.68;65.21;;
72415;Laerm;60995;52.154;4.498;2023-07-31T11:31:29;51.85;44.45;71.51;;
72415;Laerm;60995;52.154;4.498;2023-07-31T11:33:46;53.56;45.50;71.92;;
72415;Laerm;60995;52.154;4.498;2023-07-31T11:36:03;52.24;44.02;62.94;;
72415;Laerm;60995;52.154;4.498;2023-07-31T11:38:33;51.88;44.81;70.66;;
72415;Laerm;60995;52.154;4.498;2023-07-31T11:40:51;51.09;45.27;67.44;;
72415;Laerm;60995;52.154;4.498;2023-07-31T11:43:07;50.10;42.45;62.64;;
72415;Laerm;60995;52.154;4.498;2023-07-31T11:45:27;50.22;43.26;65.69;;
72415;Laerm;60995;52.154;4.498;2023-07-31T11:47:44;51.59;43.03;63.54;;
72415;Laerm;60995;52.154;4.498;2023-07-31T11:50:04;52.42;45.09;68.16;;
72415;Laerm;60995;52.154;4.498;2023-07-31T11:52:22;51.47;44.99;65.09;;
72415;Laerm;60995;52.154;4.498;2023-07-31T11:54:40;50.44;43.77;60.92;;
72415;Laerm;60995;52.154;4.498;2023-07-31T11:56:57;53.89;44.40;74.48;;
72415;Laerm;60995;52.154;4.498;2023-07-31T11:59:17;52.78;46.31;69.43;;
72415;Laerm;60995;52.154;4.498;2023-07-31T12:01:34;53.91;47.42;72.05;;
72415;Laerm;60995;52.154;4.498;2023-07-31T12:03:52;50.94;43.78;62.12;;
72415;Laerm;60995;52.154;4.498;2023-07-31T12:06:08;52.76;44.43;68.08;;
72415;Laerm;60995;52.154;4.498;2023-07-31T12:08:25;52.61;45.10;69.02;;
72415;Laerm;60995;52.154;4.498;2023-07-31T12:10:42;51.06;43.98;67.20;;
72415;Laerm;60995;52.154;4.498;2023-07-31T12:13:07;51.36;43.85;71.75;;
72415;Laerm;60995;52.154;4.498;2023-07-31T12:15:41;52.26;46.46;71.20;;
72415;Laerm;60995;52.154;4.498;2023-07-31T12:17:58;50.83;44.51;60.18;;
72415;Laerm;60995;52.154;4.498;2023-07-31T12:20:14;51.88;46.61;59.37;;
72415;Laerm;60995;52.154;4.498;2023-07-31T12:22:31;53.13;45.61;72.89;;
72415;Laerm;60995;52.154;4.498;2023-07-31T12:24:47;51.39;43.81;62.84;;
72415;Laerm;60995;52.154;4.498;2023-07-31T12:27:12;53.06;43.98;73.99;;
72415;Laerm;60995;52.154;4.498;2023-07-31T12:29:35;50.28;44.56;65.15;;
72415;Laerm;60995;52.154;4.498;2023-07-31T12:31:52;51.47;44.28;71.79;;
72415;Laerm;60995;52.154;4.498;2023-07-31T12:34:20;50.61;43.59;68.90;;
72415;Laerm;60995;52.154;4.498;2023-07-31T12:36:39;51.13;44.09;69.41;;
72415;Laerm;60995;52.154;4.498;2023-07-31T12:38:56;50.51;45.16;68.59;;
72415;Laerm;60995;52.154;4.498;2023-07-31T12:41:14;50.75;45.45;59.31;;
72415;Laerm;60995;52.154;4.498;2023-07-31T12:43:30;50.84;44.38;62.30;;
72415;Laerm;60995;52.154;4.498;2023-07-31T12:45:47;50.90;45.39;62.70;;
72415;Laerm;60995;52.154;4.498;2023-07-31T12:48:04;50.70;44.35;63.17;;
72415;Laerm;60995;52.154;4.498;2023-07-31T12:50:20;52.50;45.85;73.68;;
72415;Laerm;60995;52.154;4.498;2023-07-31T12:52:36;52.10;46.56;63.54;;
72415;Laerm;60995;52.154;4.498;2023-07-31T12:54:52;54.21;44.27;74.65;;
72415;Laerm;60995;52.154;4.498;2023-07-31T12:57:09;53.29;45.49;70.71;;
72415;Laerm;60995;52.154;4.498;2023-07-31T12:59:25;52.71;44.31;69.90;;
72415;Laerm;60995;52.154;4.498;2023-07-31T13:01:41;51.61;43.89;71.89;;
72415;Laerm;60995;52.154;4.498;2023-07-31T13:03:58;52.67;42.66;72.06;;